sensor_id;sensor_type;location;lat;lon;timestamp;P1;durP1;ratioP1;P2;durP2;ratioP2
18606;SDS011;9433;42.678;23.360;2022-07-12T00:01:22;3.60;;;1.70;;
18606;SDS011;9433;42.678;23.360;2022-07-12T00:03:50;2.00;;;1.80;;
18606;SDS011;9433;42.678;23.360;2022-07-12T00:06:17;2.20;;;1.80;;
18606;SDS011;9433;42.678;23.360;2022-07-12T00:08:43;2.30;;;2.10;;
18606;SDS011;9433;42.678;23.360;2022-07-12T00:11:10;1.90;;;1.80;;
18606;SDS011;9433;42.678;23.360;2022-07-12T00:13:37;2.47;;;2.03;;
18606;SDS011;9433;42.678;23.360;2022-07-12T00:16:04;2.67;;;1.90;;
18606;SDS011;9433;42.678;23.360;2022-07-12T00:18:31;2.30;;;2.00;;
18606;SDS011;9433;42.678;23.360;2022-07-12T00:20:59;1.93;;;1.80;;
18606;SDS011;9433;42.678;23.360;2022-07-12T00:23:26;4.00;;;1.97;;
18606;SDS011;9433;42.678;23.360;2022-07-12T00:25:53;2.37;;;2.10;;
18606;SDS011;9433;42.678;23.360;2022-07-12T00:28:19;2.23;;;1.97;;
18606;SDS011;9433;42.678;23.360;2022-07-12T00:30:46;3.93;;;1.80;;
18606;SDS011;9433;42.678;23.360;2022-07-12T00:33:13;2.40;;;1.73;;
18606;SDS011;9433;42.678;23.360;2022-07-12T00:35:40;3.37;;;1.87;;
18606;SDS011;9433;42.678;23.360;2022-07-12T00:38:08;2.20;;;1.80;;
18606;SDS011;9433;42.678;23.360;2022-07-12T00:40:35;1.83;;;1.73;;
18606;SDS011;9433;42.678;23.360;2022-07-12T00:43:01;2.10;;;2.00;;
18606;SDS011;9433;42.678;23.360;2022-07-12T00:45:28;2.20;;;2.10;;
18606;SDS011;9433;42.678;23.360;2022-07-12T00:47:55;2.37;;;2.17;;
18606;SDS011;9433;42.678;23.360;2022-07-12T00:50:22;3.23;;;2.13;;
18606;SDS011;9433;42.678;23.360;2022-07-12T00:52:49;2.03;;;1.83;;
18606;SDS011;9433;42.678;23.360;2022-07-12T00:55:19;4.07;;;2.37;;
18606;SDS011;9433;42.678;23.360;2022-07-12T00:57:47;2.10;;;1.90;;
18606;SDS011;9433;42.678;23.360;2022-07-12T01:00:15;2.27;;;2.07;;
18606;SDS011;9433;42.678;23.360;2022-07-12T01:02:44;5.93;;;2.30;;
18606;SDS011;9433;42.678;23.360;2022-07-12T01:05:11;2.73;;;2.10;;
18606;SDS011;9433;42.678;23.360;2022-07-12T01:07:38;3.50;;;2.40;;
18606;SDS011;9433;42.678;23.360;2022-07-12T01:10:06;2.27;;;2.07;;
18606;SDS011;9433;42.678;23.360;2022-07-12T01:12:35;2.73;;;2.50;;
18606;SDS011;9433;42.678;23.360;2022-07-12T01:15:03;2.30;;;2.20;;
18606;SDS011;9433;42.678;23.360;2022-07-12T01:17:31;3.77;;;2.17;;
18606;SDS011;9433;42.678;23.360;2022-07-12T01:19:58;2.63;;;2.43;;
18606;SDS011;9433;42.678;23.360;2022-07-12T01:22:26;3.00;;;2.10;;
18606;SDS011;9433;42.678;23.360;2022-07-12T01:24:58;2.70;;;2.43;;
18606;SDS011;9433;42.678;23.360;2022-07-12T01:27:25;6.93;;;2.53;;
18606;SDS011;9433;42.678;23.360;2022-07-12T01:29:52;2.80;;;2.60;;
18606;SDS011;9433;42.678;23.360;2022-07-12T01:32:19;2.37;;;2.17;;
18606;SDS011;9433;42.678;23.360;2022-07-12T01:34:54;3.00;;;2.53;;
18606;SDS011;9433;42.678;23.360;2022-07-12T01:37:22;3.00;;;2.77;;
18606;SDS011;9433;42.678;23.360;2022-07-12T01:39:50;3.53;;;2.47;;
18606;SDS011;9433;42.678;23.360;2022-07-12T01:42:20;2.73;;;2.53;;
18606;SDS011;9433;42.678;23.360;2022-07-12T01:44:47;3.87;;;2.47;;
18606;SDS011;9433;42.678;23.360;2022-07-12T01:47:15;2.57;;;2.37;;
18606;SDS011;9433;42.678;23.360;2022-07-12T01:49:42;3.43;;;2.73;;
18606;SDS011;9433;42.678;23.360;2022-07-12T01:52:09;3.07;;;2.63;;
18606;SDS011;9433;42.678;23.360;2022-07-12T01:54:35;5.13;;;2.90;;
18606;SDS011;9433;42.678;23.360;2022-07-12T01:57:03;2.40;;;2.20;;
18606;SDS011;9433;42.678;23.360;2022-07-12T01:59:32;3.53;;;2.60;;
18606;SDS011;9433;42.678;23.360;2022-07-12T02:01:59;2.50;;;2.27;;
18606;SDS011;9433;42.678;23.360;2022-07-12T02:04:26;3.57;;;2.50;;
18606;SDS011;9433;42.678;23.360;2022-07-12T02:06:53;2.57;;;2.37;;
18606;SDS011;9433;42.678;23.360;2022-07-12T02:09:21;4.70;;;2.30;;
18606;SDS011;9433;42.678;23.360;2022-07-12T02:11:48;2.67;;;2.47;;
18606;SDS011;9433;42.678;23.360;2022-07-12T02:14:16;3.17;;;2.87;;
18606;SDS011;9433;42.678;23.360;2022-07-12T02:16:44;3.07;;;2.83;;
18606;SDS011;9433;42.678;23.360;2022-07-12T02:19:11;3.83;;;2.47;;
18606;SDS011;9433;42.678;23.360;2022-07-12T02:21:39;2.60;;;2.30;;
18606;SDS011;9433;42.678;23.360;2022-07-12T02:24:06;2.73;;;2.50;;
18606;SDS011;9433;42.678;23.360;2022-07-12T02:26:33;2.63;;;2.37;;
18606;SDS011;9433;42.678;23.360;2022-07-12T02:29:00;3.23;;;2.37;;
18606;SDS011;9433;42.678;23.360;2022-07-12T02:31:27;3.23;;;2.50;;
18606;SDS011;9433;42.678;23.360;2022-07-12T02:33:55;2.97;;;2.77;;
18606;SDS011;9433;42.678;23.360;2022-07-12T02:36:22;3.57;;;3.10;;
18606;SDS011;9433;42.678;23.360;2022-07-12T02:38:49;3.60;;;2.80;;
18606;SDS011;9433;42.678;23.360;2022-07-12T02:41:16;3.20;;;2.77;;
18606;SDS011;9433;42.678;23.360;2022-07-12T02:43:43;2.50;;;2.27;;
18606;SDS011;9433;42.678;23.360;2022-07-12T02:46:10;2.60;;;2.40;;
18606;SDS011;9433;42.678;23.360;2022-07-12T02:48:38;3.10;;;2.33;;
18606;SDS011;9433;42.678;23.360;2022-07-12T02:51:07;2.73;;;2.53;;
18606;SDS011;9433;42.678;23.360;2022-07-12T02:53:35;2.30;;;2.10;;
18606;SDS011;9433;42.678;23.360;2022-07-12T02:56:02;3.23;;;1.83;;
18606;SDS011;9433;42.678;23.360;2022-07-12T02:58:29;3.77;;;2.40;;
18606;SDS011;9433;42.678;23.360;2022-07-12T03:00:56;4.40;;;2.30;;
18606;SDS011;9433;42.678;23.360;2022-07-12T03:03:23;2.43;;;2.23;;
18606;SDS011;9433;42.678;23.360;2022-07-12T03:05:50;3.40;;;2.70;;
18606;SDS011;9433;42.678;23.360;2022-07-12T03:08:18;2.77;;;2.27;;
18606;SDS011;9433;42.678;23.360;2022-07-12T03:10:45;2.07;;;1.97;;
18606;SDS011;9433;42.678;23.360;2022-07-12T03:13:12;2.90;;;2.00;;
18606;SDS011;9433;42.678;23.360;2022-07-12T03:15:39;2.10;;;1.90;;
18606;SDS011;9433;42.678;23.360;2022-07-12T03:18:05;3.47;;;2.30;;
18606;SDS011;9433;42.678;23.360;2022-07-12T03:20:32;2.13;;;1.87;;
18606;SDS011;9433;42.678;23.360;2022-07-12T03:22:59;2.57;;;2.33;;
18606;SDS011;9433;42.678;23.360;2022-07-12T03:25:27;2.57;;;1.83;;
18606;SDS011;9433;42.678;23.360;2022-07-12T03:27:54;2.47;;;2.27;;
18606;SDS011;9433;42.678;23.360;2022-07-12T03:30:20;1.90;;;1.80;;
18606;SDS011;9433;42.678;23.360;2022-07-12T03:32:47;2.50;;;2.30;;
18606;SDS011;9433;42.678;23.360;2022-07-12T03:35:14;3.23;;;2.37;;
18606;SDS011;9433;42.678;23.360;2022-07-12T03:37:41;2.50;;;2.30;;
18606;SDS011;9433;42.678;23.360;2022-07-12T03:40:09;4.03;;;2.73;;
18606;SDS011;9433;42.678;23.360;2022-07-12T03:42:39;4.27;;;2.43;;
18606;SDS011;9433;42.678;23.360;2022-07-12T03:45:06;5.07;;;2.90;;
18606;SDS011;9433;42.678;23.360;2022-07-12T03:47:33;5.70;;;3.03;;
18606;SDS011;9433;42.678;23.360;2022-07-12T03:50:01;3.07;;;2.77;;
18606;SDS011;9433;42.678;23.360;2022-07-12T03:52:30;3.53;;;2.90;;
18606;SDS011;9433;42.678;23.360;2022-07-12T03:54:56;4.57;;;2.57;;
18606;SDS011;9433;42.678;23.360;2022-07-12T03:57:23;4.20;;;2.70;;
18606;SDS011;9433;42.678;23.360;2022-07-12T03:59:52;2.50;;;2.30;;
18606;SDS011;9433;42.678;23.360;2022-07-12T04:02:19;2.87;;;2.50;;
18606;SDS011;9433;42.678;23.360;2022-07-12T04:04:46;3.73;;;2.87;;
18606;SDS011;9433;42.678;23.360;2022-07-12T04:07:13;3.23;;;2.57;;
18606;SDS011;9433;42.678;23.360;2022-07-12T04:09:40;5.13;;;2.70;;
18606;SDS011;9433;42.678;23.360;2022-07-12T04:12:07;3.03;;;2.70;;
18606;SDS011;9433;42.678;23.360;2022-07-12T04:14:34;3.17;;;2.83;;
18606;SDS011;9433;42.678;23.360;2022-07-12T04:17:03;3.67;;;2.63;;
18606;SDS011;9433;42.678;23.360;2022-07-12T04:19:31;4.47;;;2.53;;
18606;SDS011;9433;42.678;23.360;2022-07-12T04:21:58;3.20;;;2.40;;
18606;SDS011;9433;42.678;23.360;2022-07-12T04:24:25;3.67;;;2.67;;
18606;SDS011;9433;42.678;23.360;2022-07-12T04:26:51;9.20;;;3.30;;
18606;SDS011;9433;42.678;23.360;2022-07-12T04:29:19;3.83;;;3.53;;
18606;SDS011;9433;42.678;23.360;2022-07-12T04:31:47;5.33;;;3.20;;
18606;SDS011;9433;42.678;23.360;2022-07-12T04:34:16;3.50;;;3.20;;
18606;SDS011;9433;42.678;23.360;2022-07-12T04:36:43;3.60;;;3.20;;
18606;SDS011;9433;42.678;23.360;2022-07-12T04:39:10;6.40;;;3.27;;
18606;SDS011;9433;42.678;23.360;2022-07-12T04:41:37;3.40;;;3.10;;
18606;SDS011;9433;42.678;23.360;2022-07-12T04:44:04;4.93;;;3.17;;
18606;SDS011;9433;42.678;23.360;2022-07-12T04:46:31;6.93;;;3.70;;
18606;SDS011;9433;42.678;23.360;2022-07-12T04:48:58;4.80;;;3.83;;
18606;SDS011;9433;42.678;23.360;2022-07-12T04:51:27;5.97;;;4.30;;
18606;SDS011;9433;42.678;23.360;2022-07-12T04:53:54;5.20;;;3.77;;
18606;SDS011;9433;42.678;23.360;2022-07-12T04:56:20;4.07;;;3.67;;
18606;SDS011;9433;42.678;23.360;2022-07-12T04:58:47;3.87;;;3.47;;
18606;SDS011;9433;42.678;23.360;2022-07-12T05:01:14;4.20;;;3.50;;
18606;SDS011;9433;42.678;23.360;2022-07-12T05:03:41;4.30;;;3.20;;
18606;SDS011;9433;42.678;23.360;2022-07-12T05:06:08;5.43;;;3.57;;
18606;SDS011;9433;42.678;23.360;2022-07-12T05:08:36;5.60;;;2.97;;
18606;SDS011;9433;42.678;23.360;2022-07-12T05:11:03;7.93;;;3.43;;
18606;SDS011;9433;42.678;23.360;2022-07-12T05:13:29;4.57;;;3.30;;
18606;SDS011;9433;42.678;23.360;2022-07-12T05:15:56;4.80;;;3.07;;
18606;SDS011;9433;42.678;23.360;2022-07-12T05:18:23;3.83;;;3.07;;
18606;SDS011;9433;42.678;23.360;2022-07-12T05:20:50;4.67;;;3.10;;
18606;SDS011;9433;42.678;23.360;2022-07-12T05:23:17;6.10;;;3.47;;
18606;SDS011;9433;42.678;23.360;2022-07-12T05:25:46;4.67;;;3.03;;
18606;SDS011;9433;42.678;23.360;2022-07-12T05:28:13;5.60;;;3.67;;
18606;SDS011;9433;42.678;23.360;2022-07-12T05:30:40;4.17;;;3.47;;
18606;SDS011;9433;42.678;23.360;2022-07-12T05:33:08;5.50;;;3.43;;
18606;SDS011;9433;42.678;23.360;2022-07-12T05:35:35;4.13;;;3.37;;
18606;SDS011;9433;42.678;23.360;2022-07-12T05:38:02;4.53;;;3.43;;
18606;SDS011;9433;42.678;23.360;2022-07-12T05:40:29;4.00;;;3.60;;
18606;SDS011;9433;42.678;23.360;2022-07-12T05:42:57;4.97;;;3.00;;
18606;SDS011;9433;42.678;23.360;2022-07-12T05:45:25;4.77;;;3.87;;
18606;SDS011;9433;42.678;23.360;2022-07-12T05:47:52;6.07;;;3.80;;
18606;SDS011;9433;42.678;23.360;2022-07-12T05:50:19;5.37;;;3.57;;
18606;SDS011;9433;42.678;23.360;2022-07-12T05:52:45;3.93;;;3.10;;
18606;SDS011;9433;42.678;23.360;2022-07-12T05:55:30;6.27;;;3.57;;
18606;SDS011;9433;42.678;23.360;2022-07-12T05:57:58;4.10;;;3.17;;
18606;SDS011;9433;42.678;23.360;2022-07-12T06:00:25;5.37;;;3.17;;
18606;SDS011;9433;42.678;23.360;2022-07-12T06:02:51;5.53;;;2.90;;
18606;SDS011;9433;42.678;23.360;2022-07-12T06:05:18;5.30;;;3.13;;
18606;SDS011;9433;42.678;23.360;2022-07-12T06:07:45;5.23;;;2.80;;
18606;SDS011;9433;42.678;23.360;2022-07-12T06:10:12;4.80;;;2.83;;
18606;SDS011;9433;42.678;23.360;2022-07-12T06:12:39;3.20;;;2.80;;
18606;SDS011;9433;42.678;23.360;2022-07-12T06:15:07;3.87;;;2.77;;
18606;SDS011;9433;42.678;23.360;2022-07-12T06:17:34;4.17;;;2.57;;
18606;SDS011;9433;42.678;23.360;2022-07-12T06:20:01;4.03;;;2.07;;
18606;SDS011;9433;42.678;23.360;2022-07-12T06:22:28;5.43;;;2.70;;
18606;SDS011;9433;42.678;23.360;2022-07-12T06:24:55;2.93;;;2.63;;
18606;SDS011;9433;42.678;23.360;2022-07-12T06:27:22;3.63;;;2.37;;
18606;SDS011;9433;42.678;23.360;2022-07-12T06:29:49;3.43;;;2.10;;
18606;SDS011;9433;42.678;23.360;2022-07-12T06:32:18;6.27;;;2.50;;
18606;SDS011;9433;42.678;23.360;2022-07-12T06:34:45;6.60;;;2.23;;
18606;SDS011;9433;42.678;23.360;2022-07-12T06:37:11;4.37;;;1.97;;
18606;SDS011;9433;42.678;23.360;2022-07-12T06:39:40;4.73;;;2.27;;
18606;SDS011;9433;42.678;23.360;2022-07-12T06:42:07;4.67;;;1.80;;
18606;SDS011;9433;42.678;23.360;2022-07-12T06:44:34;3.23;;;2.20;;
18606;SDS011;9433;42.678;23.360;2022-07-12T06:47:01;7.20;;;2.10;;
18606;SDS011;9433;42.678;23.360;2022-07-12T06:49:30;3.43;;;2.27;;
18606;SDS011;9433;42.678;23.360;2022-07-12T06:51:57;3.70;;;2.00;;
18606;SDS011;9433;42.678;23.360;2022-07-12T06:54:24;2.07;;;1.70;;
18606;SDS011;9433;42.678;23.360;2022-07-12T06:56:51;5.50;;;2.20;;
18606;SDS011;9433;42.678;23.360;2022-07-12T06:59:18;3.73;;;1.90;;
18606;SDS011;9433;42.678;23.360;2022-07-12T07:01:45;3.83;;;2.40;;
18606;SDS011;9433;42.678;23.360;2022-07-12T07:04:11;2.33;;;2.10;;
18606;SDS011;9433;42.678;23.360;2022-07-12T07:06:39;7.53;;;2.07;;
18606;SDS011;9433;42.678;23.360;2022-07-12T07:09:06;2.20;;;1.40;;
18606;SDS011;9433;42.678;23.360;2022-07-12T07:11:34;2.13;;;1.50;;
18606;SDS011;9433;42.678;23.360;2022-07-12T07:14:02;4.43;;;1.33;;
18606;SDS011;9433;42.678;23.360;2022-07-12T07:16:29;2.17;;;1.50;;
18606;SDS011;9433;42.678;23.360;2022-07-12T07:18:55;3.30;;;1.40;;
18606;SDS011;9433;42.678;23.360;2022-07-12T07:21:22;2.40;;;0.83;;
18606;SDS011;9433;42.678;23.360;2022-07-12T07:23:51;2.03;;;1.13;;
18606;SDS011;9433;42.678;23.360;2022-07-12T07:26:17;2.87;;;1.30;;
18606;SDS011;9433;42.678;23.360;2022-07-12T07:28:44;1.67;;;1.20;;
18606;SDS011;9433;42.678;23.360;2022-07-12T07:31:28;3.53;;;0.97;;
18606;SDS011;9433;42.678;23.360;2022-07-12T07:33:56;4.83;;;1.30;;
18606;SDS011;9433;42.678;23.360;2022-07-12T07:36:22;1.73;;;1.23;;
18606;SDS011;9433;42.678;23.360;2022-07-12T07:38:50;1.27;;;1.00;;
18606;SDS011;9433;42.678;23.360;2022-07-12T07:41:17;2.33;;;1.00;;
18606;SDS011;9433;42.678;23.360;2022-07-12T07:43:44;4.10;;;1.10;;
18606;SDS011;9433;42.678;23.360;2022-07-12T07:46:11;1.93;;;0.90;;
18606;SDS011;9433;42.678;23.360;2022-07-12T07:48:38;2.90;;;1.47;;
18606;SDS011;9433;42.678;23.360;2022-07-12T07:51:04;1.83;;;0.97;;
18606;SDS011;9433;42.678;23.360;2022-07-12T07:53:31;2.33;;;1.30;;
18606;SDS011;9433;42.678;23.360;2022-07-12T07:55:59;0.80;;;0.80;;
18606;SDS011;9433;42.678;23.360;2022-07-12T07:58:27;3.83;;;1.13;;
18606;SDS011;9433;42.678;23.360;2022-07-12T08:00:54;3.10;;;0.80;;
18606;SDS011;9433;42.678;23.360;2022-07-12T08:03:21;1.90;;;1.00;;
18606;SDS011;9433;42.678;23.360;2022-07-12T08:05:47;1.10;;;0.83;;
18606;SDS011;9433;42.678;23.360;2022-07-12T08:08:16;0.87;;;0.87;;
18606;SDS011;9433;42.678;23.360;2022-07-12T08:10:43;1.50;;;1.07;;
18606;SDS011;9433;42.678;23.360;2022-07-12T08:13:11;5.80;;;1.10;;
18606;SDS011;9433;42.678;23.360;2022-07-12T08:15:38;4.13;;;0.90;;
18606;SDS011;9433;42.678;23.360;2022-07-12T08:18:05;1.10;;;0.80;;
18606;SDS011;9433;42.678;23.360;2022-07-12T08:20:32;1.90;;;0.90;;
18606;SDS011;9433;42.678;23.360;2022-07-12T08:22:59;1.30;;;0.83;;
18606;SDS011;9433;42.678;23.360;2022-07-12T08:25:25;1.60;;;0.80;;
18606;SDS011;9433;42.678;23.360;2022-07-12T08:27:52;1.80;;;1.07;;
18606;SDS011;9433;42.678;23.360;2022-07-12T08:30:20;1.50;;;1.00;;
18606;SDS011;9433;42.678;23.360;2022-07-12T08:32:48;1.70;;;1.07;;
18606;SDS011;9433;42.678;23.360;2022-07-12T08:35:15;2.00;;;1.13;;
18606;SDS011;9433;42.678;23.360;2022-07-12T08:37:42;3.17;;;1.40;;
18606;SDS011;9433;42.678;23.360;2022-07-12T08:40:09;2.50;;;0.80;;
18606;SDS011;9433;42.678;23.360;2022-07-12T08:42:36;1.07;;;0.90;;
18606;SDS011;9433;42.678;23.360;2022-07-12T08:45:07;1.10;;;1.00;;
18606;SDS011;9433;42.678;23.360;2022-07-12T08:47:35;2.17;;;1.10;;
18606;SDS011;9433;42.678;23.360;2022-07-12T08:50:12;1.77;;;0.97;;
18606;SDS011;9433;42.678;23.360;2022-07-12T08:52:42;0.97;;;0.97;;
18606;SDS011;9433;42.678;23.360;2022-07-12T08:55:17;1.30;;;1.00;;
18606;SDS011;9433;42.678;23.360;2022-07-12T08:57:45;0.77;;;0.77;;
18606;SDS011;9433;42.678;23.360;2022-07-12T09:00:12;2.43;;;1.07;;
18606;SDS011;9433;42.678;23.360;2022-07-12T09:02:44;3.80;;;1.00;;
18606;SDS011;9433;42.678;23.360;2022-07-12T09:05:15;1.13;;;0.97;;
18606;SDS011;9433;42.678;23.360;2022-07-12T09:07:42;4.53;;;1.03;;
18606;SDS011;9433;42.678;23.360;2022-07-12T09:10:10;2.30;;;1.60;;
18606;SDS011;9433;42.678;23.360;2022-07-12T09:12:38;1.00;;;0.90;;
18606;SDS011;9433;42.678;23.360;2022-07-12T09:15:10;1.37;;;1.00;;
18606;SDS011;9433;42.678;23.360;2022-07-12T09:17:38;1.37;;;0.93;;
18606;SDS011;9433;42.678;23.360;2022-07-12T09:20:06;2.47;;;0.90;;
18606;SDS011;9433;42.678;23.360;2022-07-12T09:22:35;1.90;;;0.90;;
18606;SDS011;9433;42.678;23.360;2022-07-12T09:25:08;1.50;;;0.80;;
18606;SDS011;9433;42.678;23.360;2022-07-12T09:27:46;2.03;;;1.00;;
18606;SDS011;9433;42.678;23.360;2022-07-12T09:30:13;1.00;;;0.90;;
18606;SDS011;9433;42.678;23.360;2022-07-12T09:32:48;3.43;;;0.93;;
18606;SDS011;9433;42.678;23.360;2022-07-12T09:35:34;1.37;;;1.27;;
18606;SDS011;9433;42.678;23.360;2022-07-12T09:38:18;1.77;;;0.90;;
18606;SDS011;9433;42.678;23.360;2022-07-12T09:40:44;1.43;;;0.80;;
18606;SDS011;9433;42.678;23.360;2022-07-12T09:43:12;1.33;;;0.93;;
18606;SDS011;9433;42.678;23.360;2022-07-12T09:45:40;2.77;;;1.07;;
18606;SDS011;9433;42.678;23.360;2022-07-12T09:48:09;2.23;;;0.90;;
18606;SDS011;9433;42.678;23.360;2022-07-12T09:50:37;1.10;;;0.83;;
18606;SDS011;9433;42.678;23.360;2022-07-12T09:53:05;2.77;;;0.80;;
18606;SDS011;9433;42.678;23.360;2022-07-12T09:55:35;1.37;;;1.00;;
18606;SDS011;9433;42.678;23.360;2022-07-12T09:58:05;1.30;;;0.83;;
18606;SDS011;9433;42.678;23.360;2022-07-12T10:00:35;3.70;;;0.70;;
18606;SDS011;9433;42.678;23.360;2022-07-12T10:03:02;1.00;;;0.63;;
18606;SDS011;9433;42.678;23.360;2022-07-12T10:05:30;0.70;;;0.70;;
18606;SDS011;9433;42.678;23.360;2022-07-12T10:08:02;1.27;;;0.70;;
18606;SDS011;9433;42.678;23.360;2022-07-12T10:10:29;0.90;;;0.70;;
18606;SDS011;9433;42.678;23.360;2022-07-12T10:12:57;2.10;;;0.80;;
18606;SDS011;9433;42.678;23.360;2022-07-12T10:15:25;3.20;;;0.60;;
18606;SDS011;9433;42.678;23.360;2022-07-12T10:17:54;1.03;;;0.70;;
18606;SDS011;9433;42.678;23.360;2022-07-12T10:20:24;0.93;;;0.70;;
18606;SDS011;9433;42.678;23.360;2022-07-12T10:22:53;0.50;;;0.50;;
18606;SDS011;9433;42.678;23.360;2022-07-12T10:25:31;1.07;;;0.53;;
18606;SDS011;9433;42.678;23.360;2022-07-12T10:27:59;0.93;;;0.80;;
18606;SDS011;9433;42.678;23.360;2022-07-12T10:30:25;0.70;;;0.67;;
18606;SDS011;9433;42.678;23.360;2022-07-12T10:32:53;1.10;;;0.80;;
18606;SDS011;9433;42.678;23.360;2022-07-12T10:35:24;0.87;;;0.70;;
18606;SDS011;9433;42.678;23.360;2022-07-12T10:40:44;0.85;;;0.50;;
18606;SDS011;9433;42.678;23.360;2022-07-12T10:43:13;0.73;;;0.73;;
18606;SDS011;9433;42.678;23.360;2022-07-12T10:45:41;1.00;;;0.60;;
18606;SDS011;9433;42.678;23.360;2022-07-12T10:48:19;2.70;;;0.97;;
18606;SDS011;9433;42.678;23.360;2022-07-12T10:50:50;0.65;;;0.60;;
18606;SDS011;9433;42.678;23.360;2022-07-12T10:53:34;1.90;;;0.70;;
18606;SDS011;9433;42.678;23.360;2022-07-12T10:56:11;1.40;;;0.90;;
18606;SDS011;9433;42.678;23.360;2022-07-12T10:58:41;2.90;;;1.03;;
18606;SDS011;9433;42.678;23.360;2022-07-12T11:01:10;2.10;;;0.87;;
18606;SDS011;9433;42.678;23.360;2022-07-12T11:03:38;1.13;;;0.83;;
18606;SDS011;9433;42.678;23.360;2022-07-12T11:06:06;0.70;;;0.70;;
18606;SDS011;9433;42.678;23.360;2022-07-12T11:08:47;0.87;;;0.87;;
18606;SDS011;9433;42.678;23.360;2022-07-12T11:11:17;1.27;;;0.80;;
18606;SDS011;9433;42.678;23.360;2022-07-12T11:13:44;2.03;;;0.65;;
18606;SDS011;9433;42.678;23.360;2022-07-12T11:16:11;0.93;;;0.77;;
18606;SDS011;9433;42.678;23.360;2022-07-12T11:18:38;0.60;;;0.60;;
18606;SDS011;9433;42.678;23.360;2022-07-12T11:21:05;1.52;;;0.88;;
18606;SDS011;9433;42.678;23.360;2022-07-12T11:23:32;1.58;;;0.90;;
18606;SDS011;9433;42.678;23.360;2022-07-12T11:25:59;1.35;;;0.77;;
18606;SDS011;9433;42.678;23.360;2022-07-12T11:28:29;0.70;;;0.65;;
18606;SDS011;9433;42.678;23.360;2022-07-12T11:31:04;2.15;;;1.15;;
18606;SDS011;9433;42.678;23.360;2022-07-12T11:33:32;1.17;;;0.82;;
18606;SDS011;9433;42.678;23.360;2022-07-12T11:36:02;1.00;;;0.85;;
18606;SDS011;9433;42.678;23.360;2022-07-12T11:38:31;1.13;;;0.98;;
18606;SDS011;9433;42.678;23.360;2022-07-12T11:41:00;2.15;;;0.80;;
18606;SDS011;9433;42.678;23.360;2022-07-12T11:43:30;3.17;;;0.88;;
18606;SDS011;9433;42.678;23.360;2022-07-12T11:45:58;3.05;;;0.95;;
18606;SDS011;9433;42.678;23.360;2022-07-12T11:48:26;0.70;;;0.70;;
18606;SDS011;9433;42.678;23.360;2022-07-12T11:50:54;0.70;;;0.60;;
18606;SDS011;9433;42.678;23.360;2022-07-12T11:53:22;1.05;;;0.80;;
18606;SDS011;9433;42.678;23.360;2022-07-12T11:55:50;1.08;;;0.98;;
18606;SDS011;9433;42.678;23.360;2022-07-12T12:03:30;1.33;;;1.08;;
18606;SDS011;9433;42.678;23.360;2022-07-12T12:05:57;0.82;;;0.82;;
18606;SDS011;9433;42.678;23.360;2022-07-12T12:08:24;1.90;;;1.10;;
18606;SDS011;9433;42.678;23.360;2022-07-12T12:10:52;1.42;;;0.90;;
18606;SDS011;9433;42.678;23.360;2022-07-12T12:13:21;2.65;;;0.63;;
18606;SDS011;9433;42.678;23.360;2022-07-12T12:15:49;0.93;;;0.82;;
18606;SDS011;9433;42.678;23.360;2022-07-12T12:18:26;1.15;;;0.90;;
18606;SDS011;9433;42.678;23.360;2022-07-12T12:20:57;1.33;;;0.80;;
18606;SDS011;9433;42.678;23.360;2022-07-12T12:23:26;2.50;;;0.90;;
18606;SDS011;9433;42.678;23.360;2022-07-12T12:26:07;0.80;;;0.80;;
18606;SDS011;9433;42.678;23.360;2022-07-12T12:28:44;1.27;;;0.80;;
18606;SDS011;9433;42.678;23.360;2022-07-12T12:31:12;1.05;;;0.93;;
18606;SDS011;9433;42.678;23.360;2022-07-12T12:33:40;2.78;;;0.85;;
18606;SDS011;9433;42.678;23.360;2022-07-12T12:38:55;2.35;;;1.05;;
18606;SDS011;9433;42.678;23.360;2022-07-12T12:41:23;1.80;;;0.80;;
18606;SDS011;9433;42.678;23.360;2022-07-12T12:43:57;1.38;;;0.70;;
18606;SDS011;9433;42.678;23.360;2022-07-12T12:46:45;0.88;;;0.80;;
18606;SDS011;9433;42.678;23.360;2022-07-12T12:49:12;1.90;;;1.27;;
18606;SDS011;9433;42.678;23.360;2022-07-12T12:51:54;0.70;;;0.70;;
18606;SDS011;9433;42.678;23.360;2022-07-12T12:54:31;1.48;;;1.38;;
18606;SDS011;9433;42.678;23.360;2022-07-12T12:56:58;1.85;;;0.80;;
18606;SDS011;9433;42.678;23.360;2022-07-12T12:59:25;1.45;;;0.70;;
18606;SDS011;9433;42.678;23.360;2022-07-12T13:01:52;0.65;;;0.65;;
18606;SDS011;9433;42.678;23.360;2022-07-12T13:04:19;0.90;;;0.70;;
18606;SDS011;9433;42.678;23.360;2022-07-12T13:06:46;1.52;;;0.95;;
18606;SDS011;9433;42.678;23.360;2022-07-12T13:09:14;1.52;;;0.90;;
18606;SDS011;9433;42.678;23.360;2022-07-12T13:11:40;3.08;;;0.80;;
18606;SDS011;9433;42.678;23.360;2022-07-12T13:14:07;0.85;;;0.60;;
18606;SDS011;9433;42.678;23.360;2022-07-12T13:16:34;1.48;;;0.82;;
18606;SDS011;9433;42.678;23.360;2022-07-12T13:19:01;1.42;;;0.90;;
18606;SDS011;9433;42.678;23.360;2022-07-12T13:21:27;0.82;;;0.80;;
18606;SDS011;9433;42.678;23.360;2022-07-12T13:23:54;0.60;;;0.60;;
18606;SDS011;9433;42.678;23.360;2022-07-12T13:26:22;1.25;;;0.95;;
18606;SDS011;9433;42.678;23.360;2022-07-12T13:28:49;1.15;;;1.05;;
18606;SDS011;9433;42.678;23.360;2022-07-12T13:31:16;2.00;;;0.93;;
18606;SDS011;9433;42.678;23.360;2022-07-12T13:33:43;1.88;;;0.88;;
18606;SDS011;9433;42.678;23.360;2022-07-12T13:36:09;1.52;;;0.90;;
18606;SDS011;9433;42.678;23.360;2022-07-12T13:38:36;0.65;;;0.65;;
18606;SDS011;9433;42.678;23.360;2022-07-12T13:41:03;1.83;;;1.10;;
18606;SDS011;9433;42.678;23.360;2022-07-12T13:43:32;2.40;;;0.95;;
18606;SDS011;9433;42.678;23.360;2022-07-12T13:45:59;2.58;;;0.85;;
18606;SDS011;9433;42.678;23.360;2022-07-12T13:48:26;1.02;;;0.80;;
18606;SDS011;9433;42.678;23.360;2022-07-12T13:50:52;0.63;;;0.63;;
18606;SDS011;9433;42.678;23.360;2022-07-12T13:53:19;0.90;;;0.90;;
18606;SDS011;9433;42.678;23.360;2022-07-12T13:55:46;1.63;;;0.88;;
18606;SDS011;9433;42.678;23.360;2022-07-12T13:58:13;0.85;;;0.52;;
18606;SDS011;9433;42.678;23.360;2022-07-12T14:00:41;0.70;;;0.70;;
18606;SDS011;9433;42.678;23.360;2022-07-12T14:03:08;0.63;;;0.63;;
18606;SDS011;9433;42.678;23.360;2022-07-12T14:05:35;2.97;;;1.38;;
18606;SDS011;9433;42.678;23.360;2022-07-12T14:08:02;0.80;;;0.80;;
18606;SDS011;9433;42.678;23.360;2022-07-12T14:10:29;0.70;;;0.70;;
18606;SDS011;9433;42.678;23.360;2022-07-12T14:12:58;2.17;;;1.15;;
18606;SDS011;9433;42.678;23.360;2022-07-12T14:15:25;1.92;;;0.90;;
18606;SDS011;9433;42.678;23.360;2022-07-12T14:18:06;1.70;;;0.90;;
18606;SDS011;9433;42.678;23.360;2022-07-12T14:20:34;2.90;;;0.82;;
18606;SDS011;9433;42.678;23.360;2022-07-12T14:23:01;1.77;;;0.93;;
18606;SDS011;9433;42.678;23.360;2022-07-12T14:25:31;0.70;;;0.70;;
18606;SDS011;9433;42.678;23.360;2022-07-12T14:27:58;0.70;;;0.70;;
18606;SDS011;9433;42.678;23.360;2022-07-12T14:30:24;0.80;;;0.80;;
18606;SDS011;9433;42.678;23.360;2022-07-12T14:32:51;2.63;;;0.80;;
18606;SDS011;9433;42.678;23.360;2022-07-12T14:35:19;1.50;;;0.90;;
18606;SDS011;9433;42.678;23.360;2022-07-12T14:37:46;1.27;;;0.80;;
18606;SDS011;9433;42.678;23.360;2022-07-12T14:40:13;1.17;;;0.80;;
18606;SDS011;9433;42.678;23.360;2022-07-12T14:42:40;0.75;;;0.73;;
18606;SDS011;9433;42.678;23.360;2022-07-12T14:45:09;0.80;;;0.73;;
18606;SDS011;9433;42.678;23.360;2022-07-12T14:47:35;1.30;;;0.80;;
18606;SDS011;9433;42.678;23.360;2022-07-12T14:50:02;1.30;;;0.77;;
18606;SDS011;9433;42.678;23.360;2022-07-12T14:52:31;1.00;;;0.68;;
18606;SDS011;9433;42.678;23.360;2022-07-12T14:54:58;2.22;;;0.70;;
18606;SDS011;9433;42.678;23.360;2022-07-12T14:57:25;1.00;;;0.80;;
18606;SDS011;9433;42.678;23.360;2022-07-12T14:59:52;1.90;;;0.52;;
18606;SDS011;9433;42.678;23.360;2022-07-12T15:02:19;1.77;;;0.80;;
18606;SDS011;9433;42.678;23.360;2022-07-12T15:04:46;1.45;;;0.70;;